createdAt,value
2019-02-20T00:26:43.626Z,7.89
2019-02-20T00:26:44.197Z,7.84
2019-02-20T00:26:44.807Z,7.85
2019-02-20T00:26:45.395Z,7.85
2019-02-20T00:26:45.994Z,7.85
2019-02-20T00:26:46.593Z,7.87
2019-02-20T00:26:47.198Z,7.92
2019-02-20T00:28:31.762Z,7.90
2019-02-20T00:28:32.332Z,7.84
2019-02-20T00:28:32.955Z,7.92
2019-02-20T00:28:33.531Z,7.85
2019-02-20T00:28:34.130Z,7.92
2019-02-20T00:28:34.730Z,7.85
2019-02-20T00:28:35.341Z,7.84
2019-02-20T00:28:35.930Z,7.89
2019-02-20T00:30:06.546Z,7.92
2019-02-20T00:30:07.063Z,7.92
2019-02-20T00:30:07.656Z,7.90
2019-02-20T00:30:08.254Z,7.90
2019-02-20T00:30:08.856Z,7.90
2019-02-20T00:30:09.462Z,7.97
2019-02-20T00:30:10.064Z,7.87
2019-02-20T00:30:10.654Z,7.90
2019-02-20T00:30:11.250Z,7.87
2019-02-20T00:30:11.862Z,7.97
2019-02-20T00:30:12.452Z,7.90
2019-02-20T00:30:13.055Z,7.93
2019-02-20T00:30:13.648Z,7.85
2019-02-20T00:31:24.717Z,7.89
2019-02-20T00:31:25.288Z,7.87
2019-02-20T00:31:25.887Z,7.93
2019-02-20T00:31:26.487Z,7.87
2019-02-20T00:31:27.087Z,7.89
2019-02-20T00:31:27.687Z,7.92
2019-02-20T00:31:28.287Z,7.87
2019-02-20T00:31:28.892Z,7.90
2019-02-20T00:31:29.486Z,7.93
2019-02-20T00:31:30.088Z,7.87
2019-02-20T00:31:30.687Z,7.84
2019-02-20T00:31:31.288Z,7.89
2019-02-20T00:32:30.765Z,7.93
2019-02-20T00:32:31.347Z,7.92
2019-02-20T00:32:31.940Z,7.99
2019-02-20T00:32:32.537Z,7.90
2019-02-20T00:32:33.138Z,7.90
2019-02-20T00:32:33.735Z,7.90
2019-02-20T00:32:34.347Z,7.92
2019-02-20T00:32:34.941Z,7.87
2019-02-20T00:32:35.536Z,7.89
2019-02-20T00:32:36.136Z,7.87
2019-02-20T00:32:36.735Z,7.89
2019-02-20T00:32:37.337Z,7.85
2019-02-20T00:32:37.934Z,7.90
2019-02-20T00:32:38.539Z,7.90
2019-02-20T00:32:39.135Z,7.87
2019-02-20T00:32:39.737Z,7.92
2019-02-20T00:32:40.346Z,7.87
2019-02-20T00:33:37.328Z,7.87
2019-02-20T00:33:37.902Z,7.96
2019-02-20T00:33:38.497Z,7.96
2019-02-20T00:34:33.543Z,7.90
2019-02-20T00:34:34.117Z,7.87
2019-02-20T00:34:34.717Z,7.93
2019-02-20T00:34:35.315Z,7.96
2019-02-20T00:34:35.915Z,7.99
2019-02-20T00:34:36.515Z,8.04
2019-02-20T00:35:30.582Z,8.04
2019-02-20T00:35:31.155Z,7.97
2019-02-20T00:35:31.756Z,8.10
2019-02-20T00:35:32.363Z,7.94
2019-02-20T00:35:32.955Z,7.99
2019-02-20T00:35:33.554Z,8.00
2019-02-20T00:35:34.158Z,7.99
2019-02-20T00:35:34.754Z,7.99
2019-02-20T00:36:29.771Z,8.00
2019-02-20T00:36:30.340Z,8.03
2019-02-20T00:36:30.942Z,7.90
2019-02-20T00:36:31.541Z,7.99
2019-02-20T00:36:32.140Z,7.93
2019-02-20T00:36:32.744Z,8.02
2019-02-20T00:36:33.341Z,8.02
2019-02-20T00:37:26.809Z,8.10
2019-02-20T00:37:27.382Z,7.99
2019-02-20T00:37:27.989Z,8.00
2019-02-20T00:37:28.580Z,7.99
2019-02-20T00:37:29.179Z,7.94
2019-02-20T00:37:29.782Z,7.99
2019-02-20T00:37:30.382Z,7.93
2019-02-20T00:37:30.979Z,7.99
2019-02-20T00:38:26.003Z,8.02
2019-02-20T00:38:26.569Z,7.99
2019-02-20T00:38:27.166Z,8.08
2019-02-20T00:38:27.765Z,8.03
2019-02-20T00:38:28.366Z,8.07
2019-02-20T00:38:28.966Z,7.97
2019-02-20T00:38:29.565Z,8.10
2019-02-20T00:39:24.056Z,8.00
2019-02-20T00:39:24.628Z,8.03
2019-02-20T00:39:25.228Z,8.00
2019-02-20T00:39:25.827Z,8.03
2019-02-20T00:39:26.427Z,8.03
2019-02-20T00:39:27.028Z,7.96
2019-02-20T00:39:27.627Z,7.96
2019-02-20T00:39:28.228Z,8.07
2019-02-20T00:40:22.746Z,8.11
2019-02-20T00:40:23.305Z,8.04
2019-02-20T00:40:23.907Z,8.08
2019-02-20T00:40:24.504Z,8.10
2019-02-20T00:40:25.104Z,8.07
2019-02-20T00:40:25.705Z,8.08
2019-02-20T00:40:26.303Z,8.08
2019-02-20T00:40:26.904Z,8.10
2019-02-20T00:41:20.393Z,8.07
2019-02-20T00:41:20.955Z,8.11
2019-02-20T00:41:21.554Z,8.11
2019-02-20T00:41:22.155Z,8.12
2019-02-20T00:41:22.770Z,8.12
2019-02-20T00:41:23.356Z,7.97
2019-02-20T00:41:23.954Z,8.10
2019-02-20T00:41:24.556Z,8.00
2019-02-20T00:42:18.038Z,8.11
2019-02-20T00:42:18.610Z,8.04
2019-02-20T00:42:19.209Z,8.11
2019-02-20T00:42:19.808Z,8.11
2019-02-20T00:42:20.406Z,8.10
2019-02-20T00:42:21.007Z,8.02
2019-02-20T00:42:21.607Z,8.08
2019-02-20T00:42:22.215Z,8.07
2019-02-20T00:43:16.716Z,8.07
2019-02-20T00:43:17.286Z,8.07
2019-02-20T00:43:17.893Z,8.02
2019-02-20T00:43:18.482Z,8.02
2019-02-20T00:43:19.085Z,7.96
2019-02-20T00:43:19.690Z,8.03
2019-02-20T00:43:20.282Z,8.12
2019-02-20T00:43:20.885Z,8.12
2019-02-20T00:44:14.365Z,8.00
2019-02-20T00:44:14.935Z,8.00
2019-02-20T00:44:15.538Z,8.14
2019-02-20T00:44:16.138Z,8.03
2019-02-20T00:44:16.735Z,8.02
2019-02-20T00:44:17.334Z,8.02
2019-02-20T00:44:17.934Z,8.10
2019-02-20T00:44:18.534Z,8.02
2019-02-20T00:45:13.043Z,8.04
2019-02-20T00:45:13.615Z,8.03
2019-02-20T00:45:14.211Z,8.12
2019-02-20T00:45:14.809Z,8.11
2019-02-20T00:45:15.410Z,8.11
2019-02-20T00:45:16.010Z,8.12
2019-02-20T00:45:16.610Z,8.02
2019-02-20T00:45:17.209Z,8.12
2019-02-20T00:46:11.204Z,8.00
2019-02-20T00:46:11.775Z,8.14
2019-02-20T00:46:12.374Z,8.14
2019-02-20T00:46:12.977Z,8.14
2019-02-20T00:46:13.574Z,8.07
2019-02-20T00:46:14.177Z,8.11
2019-02-20T00:46:14.776Z,8.15
2019-02-20T00:47:08.345Z,8.08
2019-02-20T00:47:08.915Z,8.15
2019-02-20T00:47:09.516Z,8.11
2019-02-20T00:47:10.116Z,8.10
2019-02-20T00:47:10.716Z,8.11
2019-02-20T00:47:11.316Z,8.03
2019-02-20T00:47:11.916Z,8.04
2019-02-20T00:47:12.515Z,8.10
2019-02-20T00:48:08.558Z,8.10
2019-02-20T00:48:09.126Z,8.14
2019-02-20T00:48:09.725Z,8.12
2019-02-20T00:48:10.328Z,8.10
2019-02-20T00:48:10.927Z,8.17
2019-02-20T00:48:11.526Z,8.10
2019-02-20T00:49:05.599Z,8.08
2019-02-20T00:49:06.164Z,8.12
2019-02-20T00:49:06.764Z,8.20
2019-02-20T00:49:07.369Z,8.20
2019-02-20T00:49:07.965Z,8.07
2019-02-20T00:49:08.565Z,8.10
2019-02-20T00:49:09.164Z,8.10
2019-02-20T00:49:09.763Z,8.08
2019-02-20T00:50:04.267Z,8.18
2019-02-20T00:50:04.840Z,8.18
2019-02-20T00:50:05.440Z,8.07
2019-02-20T00:50:06.042Z,8.14
2019-02-20T00:50:06.638Z,8.20
2019-02-20T00:50:07.242Z,8.17
2019-02-20T00:50:07.838Z,8.11
2019-02-20T00:50:08.438Z,8.17
2019-02-20T00:51:02.429Z,8.15
2019-02-20T00:51:03.007Z,8.17
2019-02-20T00:51:03.603Z,8.17
2019-02-20T00:51:04.203Z,8.14
2019-02-20T00:51:04.806Z,8.15
2019-02-20T00:51:05.410Z,8.11
2019-02-20T00:51:06.002Z,8.14
2019-02-20T00:51:59.615Z,8.15
2019-02-20T00:52:00.155Z,8.20
2019-02-20T00:52:00.745Z,8.17
2019-02-20T00:52:01.372Z,8.17
2019-02-20T00:52:01.942Z,8.17
2019-02-20T00:52:02.542Z,8.12
2019-02-20T00:52:03.143Z,8.14
2019-02-20T00:52:03.745Z,8.20
2019-02-20T00:52:57.223Z,8.12
2019-02-20T00:52:57.798Z,8.15
2019-02-20T00:52:58.397Z,8.22
2019-02-20T00:52:59.010Z,8.20
2019-02-20T00:52:59.600Z,8.20
2019-02-20T00:53:00.195Z,8.18
2019-02-20T00:53:00.794Z,8.15
2019-02-20T00:53:01.394Z,8.12
2019-02-20T00:53:56.410Z,8.18
2019-02-20T00:53:56.982Z,8.21
2019-02-20T00:53:57.582Z,8.15
2019-02-20T00:53:58.185Z,8.17
2019-02-20T00:53:58.781Z,8.20
2019-02-20T00:53:59.381Z,8.21
2019-02-20T00:53:59.982Z,8.26
2019-02-20T00:54:53.554Z,8.21
2019-02-20T00:54:54.124Z,8.35
2019-02-20T00:54:54.728Z,8.20
2019-02-20T00:54:55.335Z,8.15
2019-02-20T00:54:55.926Z,8.20
2019-02-20T00:54:56.523Z,8.20
2019-02-20T00:54:57.126Z,8.21
2019-02-20T00:54:57.724Z,8.18
2019-02-20T00:55:52.229Z,8.22
2019-02-20T00:55:52.799Z,8.22
2019-02-20T00:55:53.397Z,8.21
2019-02-20T00:55:54.008Z,8.28
2019-02-20T00:55:54.596Z,8.21
2019-02-20T00:55:55.197Z,8.28
2019-02-20T00:55:55.797Z,8.21
2019-02-20T00:55:56.397Z,8.26
2019-02-20T00:56:50.916Z,8.20
2019-02-20T00:56:51.474Z,8.26
2019-02-20T00:56:52.074Z,8.26
2019-02-20T00:56:52.673Z,8.26
2019-02-20T00:56:53.274Z,8.26
2019-02-20T00:56:53.872Z,8.26
2019-02-20T00:56:54.473Z,8.22
2019-02-20T00:56:55.073Z,8.25
2019-02-20T00:57:48.554Z,8.28
2019-02-20T00:57:49.130Z,8.26
2019-02-20T00:57:49.726Z,8.29
2019-02-20T00:57:50.326Z,8.30
2019-02-20T00:57:50.925Z,8.28
2019-02-20T00:57:51.527Z,8.29
2019-02-20T00:57:52.125Z,8.30
2019-02-20T00:57:52.725Z,8.30
2019-02-20T00:58:47.741Z,8.28
2019-02-20T00:58:48.312Z,8.32
2019-02-20T00:58:48.912Z,8.32
2019-02-20T00:58:49.514Z,8.29
2019-02-20T00:58:50.113Z,8.28
2019-02-20T00:58:50.715Z,8.25
2019-02-20T00:58:51.311Z,8.29
2019-02-20T00:59:45.290Z,8.30
2019-02-20T00:59:45.861Z,8.25
2019-02-20T00:59:46.492Z,8.26
2019-02-20T00:59:47.062Z,8.25
2019-02-20T00:59:47.661Z,8.26
2019-02-20T00:59:48.262Z,8.25
2019-02-20T00:59:48.861Z,8.22
2019-02-20T01:00:42.434Z,8.26
2019-02-20T01:00:43.004Z,8.28
2019-02-20T01:00:43.604Z,8.26
2019-02-20T01:00:44.204Z,8.30
2019-02-20T01:00:44.803Z,8.30
2019-02-20T01:00:45.405Z,8.25
2019-02-20T01:00:46.006Z,8.29
2019-02-20T01:00:46.602Z,8.30
2019-02-20T01:01:40.082Z,8.26
2019-02-20T01:01:40.657Z,8.26
2019-02-20T01:01:41.254Z,8.29
2019-02-20T01:01:41.854Z,8.36
2019-02-20T01:01:42.453Z,8.32
2019-02-20T01:01:43.055Z,8.32
2019-02-20T01:01:43.653Z,8.30
2019-02-20T01:01:44.254Z,8.29
2019-02-20T01:02:38.758Z,8.30
2019-02-20T01:02:39.330Z,8.33
2019-02-20T01:02:39.928Z,8.29
2019-02-20T01:02:40.531Z,8.33
2019-02-20T01:02:41.129Z,8.33
2019-02-20T01:02:41.729Z,8.32
2019-02-20T01:02:42.329Z,8.29
2019-02-20T01:02:42.932Z,8.32
2019-02-20T01:03:36.409Z,8.32
2019-02-20T01:03:36.982Z,8.32
2019-02-20T01:03:37.589Z,8.35
2019-02-20T01:03:38.182Z,8.37
2019-02-20T01:03:38.785Z,8.35
2019-02-20T01:03:39.384Z,8.32
2019-02-20T01:03:39.987Z,8.30
2019-02-20T01:03:40.581Z,8.33
2019-02-20T01:04:35.085Z,8.36
2019-02-20T01:04:35.658Z,8.36
2019-02-20T01:04:36.265Z,8.35
2019-02-20T01:04:36.857Z,8.30
2019-02-20T01:04:37.457Z,8.36
2019-02-20T01:04:38.064Z,8.32
2019-02-20T01:04:38.659Z,8.29
2019-02-20T01:04:39.257Z,8.35
2019-02-20T01:05:34.273Z,8.35
2019-02-20T01:05:34.846Z,8.36
2019-02-20T01:05:35.445Z,8.37
2019-02-20T01:05:36.045Z,8.33
2019-02-20T01:05:36.644Z,8.26
2019-02-20T01:05:37.246Z,8.37
2019-02-20T01:05:37.845Z,8.39
2019-02-20T01:06:31.415Z,8.36
2019-02-20T01:06:31.986Z,8.37
2019-02-20T01:06:32.586Z,8.35
2019-02-20T01:06:33.185Z,8.35
2019-02-20T01:06:33.785Z,8.39
2019-02-20T01:06:34.390Z,8.35
2019-02-20T01:06:34.985Z,8.37
2019-02-20T01:06:35.585Z,8.37
2019-02-20T01:07:29.064Z,8.36
2019-02-20T01:07:29.639Z,8.39
2019-02-20T01:07:30.237Z,8.39
2019-02-20T01:07:30.837Z,8.33
2019-02-20T01:07:31.440Z,8.33
2019-02-20T01:07:32.037Z,8.28
2019-02-20T01:07:32.637Z,8.33
2019-02-20T01:07:33.238Z,8.33
2019-02-20T01:08:26.716Z,8.36
2019-02-20T01:08:27.289Z,8.32
2019-02-20T01:08:27.888Z,8.36
2019-02-20T01:08:28.487Z,8.37
2019-02-20T01:08:29.088Z,8.35
2019-02-20T01:08:29.691Z,8.36
2019-02-20T01:08:30.288Z,8.37
2019-02-20T01:08:30.890Z,8.40
2019-02-20T01:09:24.381Z,8.32
2019-02-20T01:09:24.941Z,8.40
2019-02-20T01:09:25.548Z,8.40
2019-02-20T01:09:26.140Z,8.36
2019-02-20T01:09:26.741Z,8.36
2019-02-20T01:09:27.340Z,8.36
2019-02-20T01:09:27.940Z,8.35
2019-02-20T01:09:28.584Z,8.35
2019-02-20T01:10:23.044Z,8.32
2019-02-20T01:10:23.618Z,8.37
2019-02-20T01:10:24.215Z,8.40
2019-02-20T01:10:24.815Z,8.40
2019-02-20T01:10:25.416Z,8.33
2019-02-20T01:10:26.017Z,8.36
2019-02-20T01:10:26.615Z,8.35
2019-02-20T01:10:27.217Z,8.36
2019-02-20T01:11:21.720Z,8.32
2019-02-20T01:11:22.292Z,8.36
2019-02-20T01:11:22.890Z,8.33
2019-02-20T01:11:23.491Z,8.45
2019-02-20T01:11:24.090Z,8.35
2019-02-20T01:11:24.691Z,8.36
2019-02-20T01:11:25.292Z,8.40
2019-02-20T01:11:25.890Z,8.35
2019-02-20T01:12:20.907Z,8.35
2019-02-20T01:12:21.479Z,8.33
2019-02-20T01:12:22.079Z,8.36
2019-02-20T01:12:22.679Z,8.40
2019-02-20T01:12:23.278Z,8.40
2019-02-20T01:12:23.879Z,8.37
2019-02-20T01:12:24.477Z,8.40
2019-02-20T01:13:19.487Z,8.36
2019-02-20T01:13:20.052Z,8.32
2019-02-20T01:13:20.652Z,8.36
2019-02-20T01:13:21.251Z,8.36
2019-02-20T01:13:21.850Z,8.37
2019-02-20T01:13:22.452Z,8.37
2019-02-20T01:13:23.052Z,8.37
2019-02-20T01:14:17.543Z,8.37
2019-02-20T01:14:18.117Z,8.35
2019-02-20T01:14:18.713Z,8.28
2019-02-20T01:14:19.311Z,8.35
2019-02-20T01:14:19.920Z,8.33
2019-02-20T01:14:20.511Z,8.45
2019-02-20T01:14:21.111Z,8.40
2019-02-20T01:14:21.710Z,8.39
2019-02-20T01:15:16.729Z,8.35
2019-02-20T01:15:17.300Z,8.32
2019-02-20T01:15:17.913Z,8.33
2019-02-20T01:15:18.514Z,8.32
2019-02-20T01:15:19.102Z,8.30
2019-02-20T01:15:19.702Z,8.33
2019-02-20T01:15:20.303Z,8.36
2019-02-20T01:16:13.872Z,8.30
2019-02-20T01:16:14.441Z,8.32
2019-02-20T01:16:15.043Z,8.30
2019-02-20T01:16:15.641Z,8.35
2019-02-20T01:16:16.246Z,8.32
2019-02-20T01:16:16.843Z,8.39
2019-02-20T01:16:17.441Z,8.30
2019-02-20T01:16:18.041Z,8.35
2019-02-20T01:17:11.521Z,8.32
2019-02-20T01:17:12.094Z,8.32
2019-02-20T01:17:12.699Z,8.39
2019-02-20T01:17:13.293Z,8.33
2019-02-20T01:17:13.893Z,8.32
2019-02-20T01:17:14.508Z,8.45
2019-02-20T01:17:15.092Z,8.36
2019-02-20T01:17:15.692Z,8.32
2019-02-20T01:18:09.173Z,8.36
2019-02-20T01:18:09.747Z,8.30
2019-02-20T01:18:10.347Z,8.33
2019-02-20T01:18:10.946Z,8.37
2019-02-20T01:18:11.544Z,8.36
2019-02-20T01:18:12.150Z,8.35
2019-02-20T01:18:12.744Z,8.32
2019-02-20T01:18:13.355Z,8.36
2019-02-20T01:19:07.848Z,8.35
2019-02-20T01:19:08.421Z,8.40
2019-02-20T01:19:09.019Z,8.28
2019-02-20T01:19:09.619Z,8.37
2019-02-20T01:19:10.221Z,8.39
2019-02-20T01:19:10.818Z,8.39
2019-02-20T01:19:11.420Z,8.30
2019-02-20T01:19:12.020Z,8.36
2019-02-20T01:20:06.014Z,8.35
2019-02-20T01:20:06.587Z,8.39
2019-02-20T01:20:07.183Z,8.33
2019-02-20T01:20:07.784Z,8.37
2019-02-20T01:20:08.383Z,8.37
2019-02-20T01:20:08.982Z,8.35
2019-02-20T01:20:09.590Z,8.32
2019-02-20T01:21:06.124Z,8.32
2019-02-20T01:21:06.693Z,8.36
2019-02-20T01:21:07.292Z,8.36
2019-02-20T01:22:00.804Z,8.25
2019-02-20T01:22:01.375Z,8.36
2019-02-20T01:22:01.975Z,8.39
2019-02-20T01:22:02.576Z,8.29
2019-02-20T01:22:03.180Z,8.35
2019-02-20T01:22:03.772Z,8.36
2019-02-20T01:22:04.374Z,8.35
2019-02-20T01:22:04.973Z,8.29
2019-02-20T01:23:00.292Z,8.26
2019-02-20T01:23:00.475Z,8.28
2019-02-20T01:23:00.658Z,8.35
2019-02-20T01:23:01.253Z,8.33
2019-02-20T01:23:01.851Z,8.32
2019-02-20T01:23:02.452Z,8.29
2019-02-20T01:23:03.051Z,8.33
2019-02-20T01:23:03.653Z,8.28
2019-02-20T01:23:57.131Z,8.35
2019-02-20T01:23:57.704Z,8.36
2019-02-20T01:23:58.304Z,8.37
2019-02-20T01:23:58.908Z,8.35
2019-02-20T01:23:59.503Z,8.30
2019-02-20T01:24:00.103Z,8.30
2019-02-20T01:24:00.704Z,8.36
2019-02-20T01:24:01.306Z,8.30
2019-02-20T01:24:56.319Z,8.32
2019-02-20T01:24:56.891Z,8.35
2019-02-20T01:24:57.495Z,8.33
2019-02-20T01:24:58.089Z,8.29
2019-02-20T01:24:58.703Z,8.36
2019-02-20T01:24:59.292Z,8.35
2019-02-20T01:25:54.277Z,8.28
2019-02-20T01:25:54.850Z,8.37
2019-02-20T01:25:55.451Z,8.30
2019-02-20T01:25:56.049Z,8.33
2019-02-20T01:25:56.651Z,8.25
2019-02-20T01:25:57.253Z,8.30
2019-02-20T01:25:57.847Z,8.30
2019-02-20T01:25:58.449Z,8.33
2019-02-20T01:26:52.955Z,8.32
2019-02-20T01:26:53.527Z,8.33
2019-02-20T01:26:54.127Z,8.33
2019-02-20T01:26:54.725Z,8.35
2019-02-20T01:26:55.323Z,8.33
2019-02-20T01:26:55.925Z,8.33
2019-02-20T01:26:56.524Z,8.33
2019-02-20T01:26:57.123Z,8.30
2019-02-20T01:27:51.120Z,8.29
2019-02-20T01:27:51.689Z,8.32
2019-02-20T01:27:52.290Z,8.36
2019-02-20T01:27:52.889Z,8.33
2019-02-20T01:27:53.488Z,8.33
2019-02-20T01:27:54.089Z,8.32
2019-02-20T01:27:54.688Z,8.35
2019-02-20T01:28:49.691Z,8.26
2019-02-20T01:28:50.261Z,8.25
2019-02-20T01:28:50.862Z,8.29
2019-02-20T01:28:51.463Z,8.35
2019-02-20T01:28:52.062Z,8.30
2019-02-20T01:28:52.660Z,8.33
2019-02-20T01:28:53.262Z,8.33
2019-02-20T01:29:47.754Z,8.25
2019-02-20T01:29:48.335Z,8.36
2019-02-20T01:29:48.923Z,8.29
2019-02-20T01:29:49.524Z,8.22
2019-02-20T01:29:50.122Z,8.33
2019-02-20T01:29:50.722Z,8.33
2019-02-20T01:29:51.322Z,8.30
2019-02-20T01:29:51.921Z,8.36
2019-02-20T01:30:45.915Z,8.30
2019-02-20T01:30:46.487Z,8.26
2019-02-20T01:30:47.086Z,8.33
2019-02-20T01:30:47.686Z,8.29
2019-02-20T01:30:48.289Z,8.25
2019-02-20T01:30:48.891Z,8.36
2019-02-20T01:30:49.484Z,8.32
2019-02-20T01:31:43.055Z,8.26
2019-02-20T01:31:43.628Z,8.36
2019-02-20T01:31:44.228Z,8.36
2019-02-20T01:31:44.831Z,8.22
2019-02-20T01:31:45.428Z,8.30
2019-02-20T01:31:46.027Z,8.36
2019-02-20T01:31:46.632Z,8.30
2019-02-20T01:31:47.231Z,8.33
2019-02-20T01:32:40.707Z,8.29
2019-02-20T01:32:41.280Z,8.36
2019-02-20T01:32:41.883Z,8.36
2019-02-20T01:32:42.479Z,8.32
2019-02-20T01:32:43.078Z,8.32
2019-02-20T01:32:43.676Z,8.26
2019-02-20T01:32:44.277Z,8.29
2019-02-20T01:32:44.880Z,8.28
2019-02-20T01:33:39.892Z,8.29
2019-02-20T01:33:40.467Z,8.25
2019-02-20T01:33:41.066Z,8.29
2019-02-20T01:33:41.669Z,8.29
2019-02-20T01:33:42.267Z,8.33
2019-02-20T01:33:42.867Z,8.30
2019-02-20T01:33:43.465Z,8.29
2019-02-20T01:34:37.034Z,8.28
2019-02-20T01:34:37.606Z,8.32
2019-02-20T01:34:38.206Z,8.30
2019-02-20T01:34:38.808Z,8.33
2019-02-20T01:34:39.409Z,8.28
2019-02-20T01:34:40.008Z,8.29
2019-02-20T01:34:40.607Z,8.26
2019-02-20T01:34:41.207Z,8.32
2019-02-20T01:35:35.712Z,8.28
2019-02-20T01:35:36.283Z,8.25
2019-02-20T01:35:36.881Z,8.28
2019-02-20T01:35:37.480Z,8.30
2019-02-20T01:35:38.080Z,8.26
2019-02-20T01:35:38.680Z,8.26
2019-02-20T01:35:39.282Z,8.28
2019-02-20T01:35:39.878Z,8.30
2019-02-20T01:36:33.361Z,8.29
2019-02-20T01:36:33.934Z,8.29
2019-02-20T01:36:34.535Z,8.26
2019-02-20T01:36:35.132Z,8.26
2019-02-20T01:36:35.732Z,8.29
2019-02-20T01:36:36.337Z,8.28
2019-02-20T01:36:36.932Z,8.28
2019-02-20T01:36:37.533Z,8.25
2019-02-20T01:37:31.016Z,8.28
2019-02-20T01:37:31.586Z,8.35
2019-02-20T01:37:32.185Z,8.33
2019-02-20T01:37:32.788Z,8.36
2019-02-20T01:37:33.384Z,8.35
2019-02-20T01:37:33.986Z,8.35
2019-02-20T01:37:34.584Z,8.32
2019-02-20T01:37:35.185Z,8.28
2019-02-20T01:38:29.690Z,8.26
2019-02-20T01:38:30.268Z,8.32
2019-02-20T01:38:30.862Z,8.36
2019-02-20T01:38:31.463Z,8.33
2019-02-20T01:38:32.059Z,8.36
2019-02-20T01:38:32.662Z,8.32
2019-02-20T01:38:33.262Z,8.33
2019-02-20T01:38:33.863Z,8.29
2019-02-20T01:39:27.340Z,8.35
2019-02-20T01:39:27.914Z,8.33
2019-02-20T01:39:28.516Z,8.35
2019-02-20T01:39:29.113Z,8.35
2019-02-20T01:39:29.713Z,8.39
2019-02-20T01:39:30.321Z,8.32
2019-02-20T01:39:30.911Z,8.35
2019-02-20T01:39:31.517Z,8.33
2019-02-20T01:40:25.507Z,8.25
2019-02-20T01:40:26.075Z,8.36
2019-02-20T01:40:26.677Z,8.28
2019-02-20T01:40:27.276Z,8.32
2019-02-20T01:40:27.875Z,8.36
2019-02-20T01:40:28.475Z,8.30
2019-02-20T01:40:29.074Z,8.30
2019-02-20T01:43:51.432Z,8.25
2019-02-20T01:43:52.000Z,8.29
2019-02-20T01:43:52.600Z,8.26
2019-02-20T01:43:53.200Z,8.35
2019-02-20T01:43:53.799Z,8.29
2019-02-20T01:43:54.398Z,8.28
2019-02-20T01:43:54.998Z,8.30
2019-02-20T01:43:55.597Z,8.32
2019-02-20T01:43:56.197Z,8.28
2019-02-20T01:43:56.797Z,8.32
2019-02-20T01:43:57.399Z,8.29
2019-02-20T01:43:58.004Z,8.30
2019-02-20T01:44:52.057Z,8.28
2019-02-20T01:44:52.627Z,8.25
2019-02-20T01:44:53.226Z,8.32
2019-02-20T01:44:53.832Z,8.26
2019-02-20T01:44:54.424Z,8.25
2019-02-20T01:44:55.026Z,8.26
2019-02-20T01:44:55.625Z,8.26
2019-02-20T01:44:56.229Z,8.29
2019-02-20T01:45:49.745Z,8.28
2019-02-20T01:45:50.280Z,8.28
2019-02-20T01:45:50.891Z,8.28
2019-02-20T01:45:51.478Z,8.29
2019-02-20T01:45:52.080Z,8.25
2019-02-20T01:45:52.679Z,8.25
2019-02-20T01:45:53.277Z,8.22
2019-02-20T01:45:53.882Z,8.26
2019-02-20T01:46:47.358Z,8.29
2019-02-20T01:46:47.930Z,8.37
2019-02-20T01:46:48.529Z,8.35
2019-02-20T01:46:49.129Z,8.36
2019-02-20T01:46:49.729Z,8.32
2019-02-20T01:46:50.342Z,8.30
2019-02-20T01:46:50.928Z,8.32
2019-02-20T01:46:51.530Z,8.37
2019-02-20T01:47:46.042Z,8.26
2019-02-20T01:47:46.619Z,8.32
2019-02-20T01:47:47.206Z,8.36
2019-02-20T01:47:47.804Z,8.36
2019-02-20T01:47:48.404Z,8.33
2019-02-20T01:47:49.004Z,8.33
2019-02-20T01:47:49.606Z,8.39
2019-02-20T01:47:50.220Z,8.35
2019-02-20T01:48:43.690Z,8.29
2019-02-20T01:48:44.258Z,8.26
2019-02-20T01:48:44.858Z,8.30
2019-02-20T01:48:45.456Z,8.32
2019-02-20T01:48:46.061Z,8.26
2019-02-20T01:48:46.657Z,8.37
2019-02-20T01:48:47.257Z,8.28
2019-02-20T01:48:47.856Z,8.29
2019-02-20T01:49:41.337Z,8.25
2019-02-20T01:49:41.909Z,8.25
2019-02-20T01:49:42.509Z,8.29
2019-02-20T01:49:43.113Z,8.26
2019-02-20T01:49:43.709Z,8.29
2019-02-20T01:49:44.309Z,8.26
2019-02-20T01:49:44.907Z,8.32
2019-02-20T01:49:45.508Z,8.22
2019-02-20T01:50:39.500Z,8.28
2019-02-20T01:50:40.071Z,8.29
2019-02-20T01:50:40.671Z,8.30
2019-02-20T01:50:41.271Z,8.25
2019-02-20T01:50:41.871Z,8.30
2019-02-20T01:50:42.471Z,8.28
2019-02-20T01:50:43.070Z,8.28
2019-02-20T01:51:37.050Z,8.28
2019-02-20T01:51:37.621Z,8.26
2019-02-20T01:51:38.220Z,8.29
2019-02-20T01:51:38.824Z,8.26
2019-02-20T01:51:39.424Z,8.22
2019-02-20T01:51:40.022Z,8.28
2019-02-20T01:51:40.620Z,8.28
2019-02-20T01:52:35.155Z,8.25
2019-02-20T01:52:35.684Z,8.22
2019-02-20T01:52:36.281Z,8.29
2019-02-20T01:52:36.881Z,8.28
2019-02-20T01:52:37.482Z,8.28
2019-02-20T01:52:38.081Z,8.22
2019-02-20T01:52:38.679Z,8.28
2019-02-20T01:52:39.281Z,8.26
2019-02-20T01:53:32.762Z,8.20
2019-02-20T01:53:33.339Z,8.21
2019-02-20T01:53:33.936Z,8.25
2019-02-20T01:53:34.540Z,8.25
2019-02-20T01:53:35.136Z,8.26
2019-02-20T01:53:35.735Z,8.18
2019-02-20T01:53:36.333Z,8.25
2019-02-20T01:53:36.933Z,8.21
2019-02-20T01:54:30.415Z,8.22
2019-02-20T01:54:30.987Z,8.26
2019-02-20T01:54:31.586Z,8.26
2019-02-20T01:54:32.191Z,8.22
2019-02-20T01:54:32.784Z,8.25
2019-02-20T01:54:33.385Z,8.30
2019-02-20T01:54:33.985Z,8.20
2019-02-20T01:54:34.584Z,8.29
2019-02-20T01:55:29.089Z,8.28
2019-02-20T01:55:29.662Z,8.15
2019-02-20T01:55:30.261Z,8.25
2019-02-20T01:55:30.861Z,8.26
2019-02-20T01:55:31.461Z,8.26
2019-02-20T01:55:32.062Z,8.18
2019-02-20T01:55:32.660Z,8.14
2019-02-20T01:55:33.259Z,8.28
2019-02-20T01:56:27.256Z,8.21
2019-02-20T01:56:27.826Z,8.29
2019-02-20T01:56:28.425Z,8.28
2019-02-20T01:56:29.026Z,8.20
2019-02-20T01:56:29.624Z,8.25
2019-02-20T01:56:30.226Z,8.18
2019-02-20T01:56:30.825Z,8.25
2019-02-20T01:57:25.315Z,8.26
2019-02-20T01:57:25.896Z,8.20
2019-02-20T01:57:26.487Z,8.25
2019-02-20T01:57:27.090Z,8.21
2019-02-20T01:57:27.685Z,8.20
2019-02-20T01:57:28.299Z,8.22
2019-02-20T01:57:28.888Z,8.28
2019-02-20T01:57:29.485Z,8.20
2019-02-20T01:58:22.970Z,8.18
2019-02-20T01:58:23.539Z,8.20
2019-02-20T01:58:24.142Z,8.22
2019-02-20T01:58:24.738Z,8.20
2019-02-20T01:58:25.338Z,8.15
2019-02-20T01:58:25.939Z,8.21
2019-02-20T01:58:26.540Z,8.22
2019-02-20T01:58:27.138Z,8.18
2019-02-20T01:59:20.618Z,8.17
2019-02-20T01:59:21.227Z,8.22
2019-02-20T01:59:21.791Z,8.28
2019-02-20T01:59:22.392Z,8.18
2019-02-20T01:59:22.993Z,8.20
2019-02-20T01:59:23.595Z,8.26
2019-02-20T01:59:24.190Z,8.20
2019-02-20T01:59:24.789Z,8.14
2019-02-20T02:00:18.270Z,8.18
2019-02-20T02:00:18.845Z,8.20
2019-02-20T02:00:19.444Z,8.15
2019-02-20T02:00:20.042Z,8.15
2019-02-20T02:00:20.644Z,8.20
2019-02-20T02:00:21.243Z,8.18
2019-02-20T02:00:21.842Z,8.22
2019-02-20T02:00:22.441Z,8.10
2019-02-20T02:01:15.922Z,8.15
2019-02-20T02:01:16.494Z,8.25
2019-02-20T02:01:17.097Z,8.14
2019-02-20T02:01:17.695Z,8.15
2019-02-20T02:01:18.294Z,8.18
2019-02-20T02:01:18.894Z,8.10
2019-02-20T02:01:19.495Z,8.15
2019-02-20T02:01:20.094Z,8.17
2019-02-20T02:02:14.597Z,8.17
2019-02-20T02:02:15.171Z,8.18
2019-02-20T02:02:15.768Z,8.15
2019-02-20T02:02:16.369Z,8.20
2019-02-20T02:02:16.973Z,8.21
2019-02-20T02:02:17.572Z,8.17
2019-02-20T02:02:18.170Z,8.18
2019-02-20T02:02:18.781Z,8.21
2019-02-20T02:03:12.249Z,8.20
2019-02-20T02:03:12.824Z,8.20
2019-02-20T02:03:13.422Z,8.21
2019-02-20T02:03:14.021Z,8.14
2019-02-20T02:03:14.621Z,8.14
2019-02-20T02:03:15.222Z,8.20
2019-02-20T02:03:15.820Z,8.21
2019-02-20T02:03:16.421Z,8.18
2019-02-20T02:04:09.912Z,8.14
2019-02-20T02:04:10.480Z,8.17
2019-02-20T02:04:11.075Z,8.18
2019-02-20T02:04:11.672Z,8.15
2019-02-20T02:04:12.271Z,8.14
2019-02-20T02:04:12.875Z,8.15
2019-02-20T02:04:13.472Z,8.17
2019-02-20T02:04:14.071Z,8.17
2019-02-20T02:05:15.158Z,8.20
2019-02-20T02:05:15.191Z,8.14
2019-02-20T02:05:15.390Z,8.12
2019-02-20T02:05:15.489Z,8.08
2019-02-20T02:05:15.535Z,8.10
2019-02-20T02:05:15.541Z,8.12
2019-02-20T02:05:15.760Z,8.10
2019-02-20T02:06:07.150Z,8.12
2019-02-20T02:06:07.725Z,8.15
2019-02-20T02:06:08.323Z,8.15
2019-02-20T02:06:08.921Z,8.11
2019-02-20T02:06:09.523Z,8.10
2019-02-20T02:06:10.122Z,8.11
2019-02-20T02:06:10.720Z,8.08
2019-02-20T02:06:11.320Z,8.10
2019-02-20T02:07:05.824Z,8.08
2019-02-20T02:07:06.398Z,8.08
2019-02-20T02:07:06.997Z,8.11
2019-02-20T02:07:07.597Z,8.08
2019-02-20T02:07:08.196Z,8.12
2019-02-20T02:07:08.797Z,8.10
2019-02-20T02:07:09.397Z,8.03
2019-02-20T02:07:09.997Z,8.12
2019-02-20T02:08:05.012Z,8.10
2019-02-20T02:08:05.586Z,8.02
2019-02-20T02:08:06.185Z,8.12
2019-02-20T02:08:06.785Z,8.11
2019-02-20T02:08:07.386Z,8.04
2019-02-20T02:08:07.986Z,8.11
2019-02-20T02:08:08.586Z,8.11
2019-02-20T02:09:02.156Z,8.00
2019-02-20T02:09:02.726Z,8.10
2019-02-20T02:09:03.326Z,8.14
2019-02-20T02:09:03.926Z,8.08
2019-02-20T02:09:04.528Z,7.99
2019-02-20T02:09:05.127Z,8.15
2019-02-20T02:09:05.724Z,8.11
2019-02-20T02:09:06.324Z,8.00